createdAt,value
2018-07-14T00:01:35.818Z,21.50
2018-07-14T00:04:11.088Z,21.50
2018-07-14T00:06:46.296Z,21.50
2018-07-14T00:09:21.711Z,21.40
2018-07-14T00:11:57.103Z,21.30
2018-07-14T00:14:32.191Z,21.40
2018-07-14T00:17:07.455Z,21.20
2018-07-14T00:19:42.733Z,21.20
2018-07-14T00:22:17.923Z,21.10
2018-07-14T00:24:53.155Z,21.20
2018-07-14T00:27:28.559Z,21.20
2018-07-14T00:30:03.676Z,21.20
2018-07-14T00:32:39.041Z,21.20
2018-07-14T00:35:14.283Z,21.10
2018-07-14T00:37:49.645Z,21.00
2018-07-14T00:40:24.997Z,20.90
2018-07-14T00:43:00.317Z,21.10
2018-07-14T00:45:35.499Z,20.90
2018-07-14T00:48:10.926Z,20.90
2018-07-14T00:50:46.307Z,20.80
2018-07-14T00:53:21.584Z,20.90
2018-07-14T00:55:57.025Z,20.80
2018-07-14T00:58:32.294Z,20.80
2018-07-14T01:01:07.484Z,20.70
2018-07-14T01:03:42.731Z,20.80
2018-07-14T01:06:18.073Z,20.70
2018-07-14T01:08:53.310Z,20.70
2018-07-14T01:14:03.522Z,20.80
2018-07-14T01:16:38.754Z,20.70
2018-07-14T01:19:13.948Z,20.50
2018-07-14T01:21:49.341Z,20.40
2018-07-14T01:24:24.466Z,20.50
2018-07-14T01:26:59.701Z,20.50
2018-07-14T01:29:34.919Z,20.50
2018-07-14T01:32:10.163Z,20.50
2018-07-14T01:34:45.415Z,20.40
2018-07-14T01:37:20.585Z,20.40
2018-07-14T01:39:55.787Z,20.30
2018-07-14T01:42:30.908Z,20.20
2018-07-14T01:45:06.356Z,20.20
2018-07-14T01:47:41.568Z,20.30
2018-07-14T01:50:16.925Z,20.10
2018-07-14T01:55:26.941Z,20.10
2018-07-14T01:58:02.090Z,20.00
2018-07-14T02:00:37.832Z,19.90
2018-07-14T02:03:13.272Z,19.80
2018-07-14T02:05:48.720Z,19.90
2018-07-14T02:08:24.200Z,19.90
2018-07-14T02:10:59.495Z,19.80
2018-07-14T02:16:10.031Z,19.80
2018-07-14T02:18:45.283Z,19.90
2018-07-14T02:21:21.136Z,19.90
2018-07-14T02:23:56.519Z,19.80
2018-07-14T02:26:31.951Z,19.70
2018-07-14T02:29:07.478Z,19.70
2018-07-14T02:31:42.670Z,19.60
2018-07-14T02:34:17.802Z,19.60
2018-07-14T02:36:53.075Z,19.60
2018-07-14T02:39:28.356Z,19.50
2018-07-14T02:42:03.594Z,19.40
2018-07-14T02:44:38.733Z,19.40
2018-07-14T02:47:13.819Z,19.40
2018-07-14T02:49:49.072Z,19.20
2018-07-14T02:52:24.620Z,19.20
2018-07-14T02:54:59.955Z,19.30
2018-07-14T02:57:35.522Z,19.20
2018-07-14T03:00:10.787Z,19.20
2018-07-14T03:02:46.295Z,19.40
2018-07-14T03:05:21.633Z,19.30
2018-07-14T03:07:56.805Z,19.30
2018-07-14T03:10:31.919Z,19.30
2018-07-14T03:13:07.284Z,19.20
2018-07-14T03:15:42.572Z,19.20
2018-07-14T03:18:17.920Z,19.10
2018-07-14T03:20:53.402Z,19.10
2018-07-14T03:23:28.496Z,19.20
2018-07-14T03:26:04.022Z,19.10
2018-07-14T03:28:39.205Z,19.20
2018-07-14T03:31:14.351Z,19.10
2018-07-14T03:33:49.572Z,19.00
2018-07-14T03:36:24.803Z,19.00
2018-07-14T03:39:00.028Z,18.90
2018-07-14T03:44:10.380Z,19.00
2018-07-14T03:46:45.571Z,19.00
2018-07-14T03:49:20.693Z,19.00
2018-07-14T03:54:30.852Z,18.80
2018-07-14T03:57:06.007Z,18.80
2018-07-14T03:59:41.540Z,18.70
2018-07-14T04:02:16.607Z,18.90
2018-07-14T04:04:51.752Z,18.80
2018-07-14T04:07:26.987Z,18.90
2018-07-14T04:10:02.300Z,18.80
2018-07-14T04:12:37.423Z,18.70
2018-07-14T04:15:12.703Z,18.70
2018-07-14T04:20:27.139Z,18.60
2018-07-14T04:23:02.708Z,18.80
2018-07-14T04:25:38.371Z,18.90
2018-07-14T04:28:13.836Z,18.90
2018-07-14T04:33:24.430Z,19.00
2018-07-14T04:35:59.610Z,19.00
2018-07-14T04:38:34.732Z,19.00
2018-07-14T04:41:09.989Z,18.90
2018-07-14T04:43:45.750Z,19.00
2018-07-14T04:46:21.107Z,18.90
2018-07-14T04:48:56.535Z,18.90
2018-07-14T04:51:31.779Z,18.90
2018-07-14T04:54:07.007Z,18.90
2018-07-14T04:56:42.342Z,19.00
2018-07-14T04:59:17.511Z,19.00
2018-07-14T05:01:52.880Z,19.00
2018-07-14T05:04:28.050Z,19.00
2018-07-14T05:07:09.829Z,19.10
2018-07-14T05:09:45.026Z,19.00
2018-07-14T05:12:20.332Z,19.10
2018-07-14T05:14:55.741Z,19.10
2018-07-14T05:17:30.931Z,19.20
2018-07-14T05:20:06.774Z,19.20
2018-07-14T05:22:42.005Z,19.30
2018-07-14T05:25:17.143Z,19.30
2018-07-14T05:27:52.288Z,19.40
2018-07-14T05:30:27.539Z,19.40
2018-07-14T05:33:02.819Z,19.50
2018-07-14T05:35:38.090Z,19.50
2018-07-14T05:38:13.191Z,19.50
2018-07-14T05:40:48.406Z,19.60
2018-07-14T05:43:23.826Z,19.60
2018-07-14T05:45:58.963Z,19.70
2018-07-14T05:51:09.429Z,19.70
2018-07-14T05:56:19.523Z,19.80
2018-07-14T05:58:54.804Z,19.70
2018-07-14T06:01:29.942Z,19.80
2018-07-14T06:04:05.463Z,19.80
2018-07-14T06:06:40.656Z,19.90
2018-07-14T06:09:15.887Z,19.90
2018-07-14T06:11:51.174Z,20.00
2018-07-14T06:14:26.394Z,20.00
2018-07-14T06:17:01.856Z,20.00
2018-07-14T06:19:37.102Z,20.10
2018-07-14T06:22:12.286Z,20.00
2018-07-14T06:24:47.653Z,20.10
2018-07-14T06:27:22.882Z,20.20
2018-07-14T06:29:58.213Z,20.20
2018-07-14T06:32:33.412Z,20.20
2018-07-14T06:35:08.898Z,20.30
2018-07-14T06:37:44.488Z,20.30
2018-07-14T06:40:19.828Z,20.30
2018-07-14T06:42:55.382Z,20.30
2018-07-14T06:45:30.710Z,20.40
2018-07-14T06:48:06.251Z,20.40
2018-07-14T06:50:41.467Z,20.40
2018-07-14T06:53:17.151Z,20.40
2018-07-14T06:55:52.487Z,20.50
2018-07-14T06:58:27.998Z,20.60
2018-07-14T07:01:03.450Z,20.70
2018-07-14T07:03:38.943Z,20.70
2018-07-14T07:06:21.432Z,20.80
2018-07-14T07:08:57.488Z,20.80
2018-07-14T07:11:33.100Z,20.90
2018-07-14T07:14:08.264Z,21.00
2018-07-14T07:16:43.596Z,21.00
2018-07-14T07:19:18.738Z,21.10
2018-07-14T07:21:54.063Z,21.10
2018-07-14T07:27:04.262Z,21.30
2018-07-14T07:29:39.888Z,21.40
2018-07-14T07:32:15.122Z,21.40
2018-07-14T07:34:50.266Z,21.50
2018-07-14T07:37:25.558Z,21.60
2018-07-14T07:40:00.772Z,21.70
2018-07-14T07:42:35.992Z,21.70
2018-07-14T07:45:11.443Z,21.70
2018-07-14T07:47:46.827Z,21.70
2018-07-14T07:50:22.171Z,21.80
2018-07-14T07:52:57.347Z,21.70
2018-07-14T07:55:32.492Z,21.80
2018-07-14T07:58:08.408Z,21.80
2018-07-14T08:00:43.601Z,21.80
2018-07-14T08:05:53.783Z,22.10
2018-07-14T08:08:29.120Z,22.30
2018-07-14T08:11:04.230Z,22.20
2018-07-14T08:13:39.517Z,22.30
2018-07-14T08:16:14.897Z,22.30
2018-07-14T08:18:50.517Z,22.40
2018-07-14T08:21:25.650Z,22.40
2018-07-14T08:24:01.235Z,22.60
2018-07-14T08:26:42.831Z,22.80
2018-07-14T08:29:18.046Z,22.90
2018-07-14T08:31:53.687Z,23.00
2018-07-14T08:34:28.908Z,23.10
2018-07-14T08:37:04.289Z,23.20
2018-07-14T08:39:39.423Z,23.40
2018-07-14T08:42:14.589Z,23.40
2018-07-14T08:47:24.749Z,23.30
2018-07-14T08:50:00.068Z,23.20
2018-07-14T08:52:35.412Z,23.10
2018-07-14T08:55:11.038Z,23.30
2018-07-14T08:57:46.278Z,23.40
2018-07-14T09:00:21.771Z,23.50
2018-07-14T09:02:57.141Z,23.60
2018-07-14T09:05:32.444Z,23.80
2018-07-14T09:08:07.753Z,23.80
2018-07-14T09:10:42.971Z,24.00
2018-07-14T09:13:18.303Z,24.20
2018-07-14T09:15:53.781Z,24.20
2018-07-14T09:18:29.148Z,24.40
2018-07-14T09:21:04.604Z,24.70
2018-07-14T09:23:40.243Z,24.80
2018-07-14T09:26:16.323Z,24.90
2018-07-14T09:28:51.711Z,24.90
2018-07-14T09:31:27.077Z,24.90
2018-07-14T09:34:03.003Z,24.80
2018-07-14T09:36:38.989Z,24.80
2018-07-14T09:39:15.534Z,24.80
2018-07-14T09:41:51.363Z,24.90
2018-07-14T09:44:27.478Z,25.10
2018-07-14T09:47:03.397Z,25.30
2018-07-14T09:49:38.645Z,25.20
2018-07-14T09:52:14.686Z,25.20
2018-07-14T09:54:50.144Z,25.30
2018-07-14T09:57:25.682Z,25.40
2018-07-14T10:00:01.209Z,25.30
2018-07-14T10:02:36.700Z,25.40
2018-07-14T10:05:12.335Z,25.60
2018-07-14T10:07:47.743Z,25.70
2018-07-14T10:10:24.044Z,25.80
2018-07-14T10:12:59.315Z,25.70
2018-07-14T10:15:34.840Z,25.70
2018-07-14T10:18:10.881Z,25.70
2018-07-14T10:20:46.180Z,25.70
2018-07-14T10:25:56.792Z,25.90
2018-07-14T10:28:32.140Z,25.90
2018-07-14T10:31:07.578Z,26.10
2018-07-14T10:33:43.654Z,26.20
2018-07-14T10:36:19.758Z,26.30
2018-07-14T10:38:55.135Z,26.30
2018-07-14T10:41:30.264Z,26.40
2018-07-14T10:44:05.571Z,26.60
2018-07-14T10:46:40.897Z,26.70
2018-07-14T10:49:16.611Z,26.70
2018-07-14T10:51:52.048Z,26.70
2018-07-14T10:54:27.293Z,26.80
2018-07-14T10:57:02.887Z,27.00
2018-07-14T10:59:38.222Z,27.10
2018-07-14T11:02:13.681Z,27.30
2018-07-14T11:04:48.987Z,27.30
2018-07-14T11:07:24.177Z,27.20
2018-07-14T11:10:06.129Z,27.10
2018-07-14T11:12:41.424Z,27.10
2018-07-14T11:15:17.082Z,27.20
2018-07-14T11:17:52.926Z,27.30
2018-07-14T11:20:28.323Z,27.30
2018-07-14T11:23:04.147Z,27.30
2018-07-14T11:25:39.517Z,27.30
2018-07-14T11:28:14.667Z,27.30
2018-07-14T11:30:50.006Z,27.20
2018-07-14T11:33:25.205Z,27.20
2018-07-14T11:36:00.458Z,27.20
2018-07-14T11:38:35.627Z,27.30
2018-07-14T11:41:10.999Z,27.30
2018-07-14T11:43:46.260Z,27.50
2018-07-14T11:46:21.654Z,27.60
2018-07-14T11:48:56.844Z,27.70
2018-07-14T11:51:32.096Z,27.70
2018-07-14T11:54:07.561Z,27.80
2018-07-14T11:56:43.404Z,27.80
2018-07-14T11:59:18.868Z,28.00
2018-07-14T12:01:54.274Z,28.40
2018-07-14T12:04:29.459Z,28.40
2018-07-14T12:07:04.875Z,28.10
2018-07-14T12:09:40.174Z,28.00
2018-07-14T12:12:15.335Z,27.60
2018-07-14T12:14:50.740Z,27.70
2018-07-14T12:17:26.405Z,27.80
2018-07-14T12:20:01.714Z,28.00
2018-07-14T12:25:11.795Z,28.30
2018-07-14T12:27:47.176Z,27.90
2018-07-14T12:30:22.604Z,28.00
2018-07-14T12:32:57.810Z,28.40
2018-07-14T12:35:32.891Z,28.60
2018-07-14T12:38:08.223Z,28.80
2018-07-14T12:40:43.579Z,29.00
2018-07-14T12:43:19.006Z,29.10
2018-07-14T12:45:54.527Z,29.20
2018-07-14T12:48:30.100Z,29.00
2018-07-14T12:51:05.343Z,28.60
2018-07-14T12:53:41.687Z,28.10
2018-07-14T12:56:16.932Z,27.70
2018-07-14T12:58:52.359Z,27.50
2018-07-14T13:01:27.692Z,27.50
2018-07-14T13:04:03.189Z,27.40
2018-07-14T13:06:39.182Z,28.00
2018-07-14T13:09:14.419Z,28.30
2018-07-14T13:11:50.008Z,28.70
2018-07-14T13:14:25.168Z,29.00
2018-07-14T13:17:00.495Z,29.00
2018-07-14T13:19:35.700Z,28.80
2018-07-14T13:22:11.328Z,28.50
2018-07-14T13:24:46.715Z,29.00
2018-07-14T13:27:22.859Z,29.20
2018-07-14T13:29:59.047Z,29.50
2018-07-14T13:32:34.744Z,29.80
2018-07-14T13:35:10.435Z,29.90
2018-07-14T13:37:45.775Z,30.10
2018-07-14T13:40:20.976Z,30.30
2018-07-14T13:42:56.541Z,30.10
2018-07-14T13:45:32.355Z,30.10
2018-07-14T13:48:07.767Z,30.10
2018-07-14T13:50:43.024Z,30.20
2018-07-14T13:53:18.594Z,30.60
2018-07-14T13:55:54.157Z,30.70
2018-07-14T13:58:36.740Z,30.70
2018-07-14T14:01:12.007Z,30.70
2018-07-14T14:03:47.475Z,30.90
2018-07-14T14:06:24.433Z,30.80
2018-07-14T14:09:00.029Z,30.70
2018-07-14T14:11:35.486Z,30.80
2018-07-14T14:14:10.880Z,30.90
2018-07-14T14:16:46.205Z,30.90
2018-07-14T14:19:21.471Z,30.90
2018-07-14T14:21:56.865Z,30.80
2018-07-14T14:24:32.659Z,30.70
2018-07-14T14:27:07.780Z,30.40
2018-07-14T14:29:43.038Z,30.50
2018-07-14T14:32:18.227Z,30.60
2018-07-14T14:34:53.428Z,30.70
2018-07-14T14:37:28.549Z,31.00
2018-07-14T14:40:03.898Z,31.20
2018-07-14T14:42:39.139Z,31.10
2018-07-14T14:45:14.585Z,31.20
2018-07-14T14:47:50.061Z,31.20
2018-07-14T14:50:25.220Z,31.10
2018-07-14T14:53:00.579Z,31.10
2018-07-14T14:55:36.464Z,30.90
2018-07-14T14:58:11.728Z,31.10
2018-07-14T15:00:46.910Z,30.90
2018-07-14T15:03:22.457Z,30.70
2018-07-14T15:05:57.823Z,30.70
2018-07-14T15:08:33.065Z,30.50
2018-07-14T15:11:08.330Z,30.50
2018-07-14T15:13:43.431Z,30.50
2018-07-14T15:16:18.982Z,30.10
2018-07-14T15:18:54.368Z,30.00
2018-07-14T15:21:29.843Z,30.00
2018-07-14T15:24:05.224Z,30.10
2018-07-14T15:26:40.639Z,30.10
2018-07-14T15:29:15.922Z,29.90
2018-07-14T15:31:51.192Z,29.50
2018-07-14T15:34:26.686Z,29.40
2018-07-14T15:37:02.008Z,29.40
2018-07-14T15:39:37.194Z,29.50
2018-07-14T15:42:13.511Z,29.40
2018-07-14T15:44:48.654Z,29.40
2018-07-14T15:47:23.820Z,29.30
2018-07-14T15:52:33.956Z,29.10
2018-07-14T15:55:09.478Z,29.10
2018-07-14T15:57:44.717Z,29.10
2018-07-14T16:00:20.036Z,29.00
2018-07-14T16:02:58.085Z,28.70
2018-07-14T16:05:33.335Z,28.60
2018-07-14T16:08:08.548Z,28.60
2018-07-14T16:10:44.301Z,28.60
2018-07-14T16:13:19.519Z,28.60
2018-07-14T16:15:54.695Z,28.60
2018-07-14T16:18:30.045Z,28.60
2018-07-14T16:21:05.924Z,28.50
2018-07-14T16:23:41.695Z,28.50
2018-07-14T16:26:16.963Z,28.50
2018-07-14T16:28:52.062Z,28.40
2018-07-14T16:31:27.255Z,28.30
2018-07-14T16:34:02.589Z,28.30
2018-07-14T16:36:37.847Z,28.10
2018-07-14T16:39:13.216Z,28.20
2018-07-14T16:41:48.494Z,28.20
2018-07-14T16:44:23.665Z,28.10
2018-07-14T16:46:58.881Z,28.10
2018-07-14T16:49:34.204Z,28.10
2018-07-14T16:52:09.371Z,28.10
2018-07-14T16:54:45.167Z,28.00
2018-07-14T16:57:20.450Z,28.00
2018-07-14T16:59:55.780Z,27.90
2018-07-14T17:02:31.043Z,27.90
2018-07-14T17:05:06.421Z,27.80
2018-07-14T17:07:41.810Z,27.90
2018-07-14T17:10:17.842Z,27.90
2018-07-14T17:12:52.991Z,27.80
2018-07-14T17:15:28.140Z,27.80
2018-07-14T17:23:13.371Z,27.60
2018-07-14T17:25:48.769Z,27.60
2018-07-14T17:28:24.106Z,27.70
2018-07-14T17:30:59.415Z,27.60
2018-07-14T17:33:34.623Z,27.70
2018-07-14T17:36:10.084Z,27.70
2018-07-14T17:38:45.839Z,27.70
2018-07-14T17:41:21.106Z,27.60
2018-07-14T17:46:31.552Z,27.60
2018-07-14T17:49:06.727Z,27.60
2018-07-14T17:51:42.024Z,27.50
2018-07-14T17:54:17.967Z,27.50
2018-07-14T17:59:27.980Z,27.50
2018-07-14T18:02:03.130Z,27.40
2018-07-14T18:04:38.233Z,27.40
2018-07-14T18:07:13.365Z,27.30
2018-07-14T18:09:48.787Z,27.20
2018-07-14T18:12:24.016Z,27.10
2018-07-14T18:14:59.167Z,27.10
2018-07-14T18:17:34.851Z,26.90
2018-07-14T18:20:09.963Z,26.90
2018-07-14T18:22:45.255Z,26.80
2018-07-14T18:25:20.783Z,26.80
2018-07-14T18:27:56.037Z,26.70
2018-07-14T18:30:31.356Z,26.60
2018-07-14T18:33:06.604Z,26.60
2018-07-14T18:35:42.041Z,26.50
2018-07-14T18:38:17.411Z,26.50
2018-07-14T18:40:52.936Z,26.40
2018-07-14T18:43:28.172Z,26.40
2018-07-14T18:46:03.500Z,26.30
2018-07-14T18:48:38.747Z,26.30
2018-07-14T18:51:13.986Z,26.30
2018-07-14T18:53:49.174Z,26.20
2018-07-14T18:56:25.484Z,26.20
2018-07-14T18:59:00.574Z,26.00
2018-07-14T19:01:35.726Z,26.00
2018-07-14T19:04:11.080Z,25.90
2018-07-14T19:06:46.402Z,25.90
2018-07-14T19:09:21.759Z,25.70
2018-07-14T19:14:31.827Z,25.60
2018-07-14T19:17:07.012Z,25.50
2018-07-14T19:22:17.055Z,25.40
2018-07-14T19:24:52.162Z,25.40
2018-07-14T19:27:27.439Z,25.30
2018-07-14T19:30:02.659Z,25.30
2018-07-14T19:32:37.989Z,25.30
2018-07-14T19:35:13.160Z,25.10
2018-07-14T19:37:48.584Z,25.10
2018-07-14T19:40:23.928Z,25.10
2018-07-14T19:45:34.081Z,25.00
2018-07-14T19:48:09.739Z,25.10
2018-07-14T19:50:44.849Z,25.00
2018-07-14T19:53:20.040Z,24.90
2018-07-14T19:55:55.561Z,24.90
2018-07-14T19:58:30.729Z,24.90
2018-07-14T20:01:06.267Z,24.80
2018-07-14T20:03:41.563Z,24.80
2018-07-14T20:06:16.963Z,24.80
2018-07-14T20:08:52.347Z,24.80
2018-07-14T20:11:27.930Z,24.70
2018-07-14T20:14:03.333Z,24.60
2018-07-14T20:16:38.687Z,24.50
2018-07-14T20:19:14.167Z,24.50
2018-07-14T20:21:49.311Z,24.40
2018-07-14T20:24:24.577Z,24.40
2018-07-14T20:27:00.468Z,24.40
2018-07-14T20:29:35.861Z,24.30
2018-07-14T20:32:11.027Z,24.30
2018-07-14T20:34:46.413Z,24.20
2018-07-14T20:39:56.588Z,24.10
2018-07-14T20:42:32.107Z,24.10
2018-07-14T20:45:07.474Z,24.10
2018-07-14T20:47:42.771Z,24.00
2018-07-14T20:50:18.153Z,24.00
2018-07-14T20:52:53.626Z,23.90
2018-07-14T20:58:03.714Z,23.80
2018-07-14T21:00:39.103Z,23.80
2018-07-14T21:03:14.464Z,23.80
2018-07-14T21:05:49.604Z,23.70
2018-07-14T21:10:59.946Z,23.60
2018-07-14T21:13:35.495Z,23.60
2018-07-14T21:16:10.916Z,23.50
2018-07-14T21:18:46.156Z,23.60
2018-07-14T21:21:21.776Z,23.50
2018-07-14T21:23:56.749Z,23.50
2018-07-14T21:26:32.157Z,23.50
2018-07-14T21:31:42.182Z,23.20
2018-07-14T21:36:52.645Z,23.20
2018-07-14T21:39:27.864Z,23.10
2018-07-14T21:42:03.627Z,23.10
2018-07-14T21:44:38.680Z,23.10
2018-07-14T21:47:13.974Z,23.00
2018-07-14T21:49:49.128Z,23.10
2018-07-14T21:52:24.394Z,22.90
2018-07-14T21:54:59.663Z,22.90
2018-07-14T21:57:34.786Z,22.90
2018-07-14T22:00:15.571Z,22.80
2018-07-14T22:02:50.748Z,22.70
2018-07-14T22:05:26.091Z,22.70
2018-07-14T22:08:02.205Z,22.70
2018-07-14T22:10:37.408Z,22.70
2018-07-14T22:13:12.732Z,22.60
2018-07-14T22:15:47.987Z,22.60
2018-07-14T22:18:23.200Z,22.60
2018-07-14T22:20:58.600Z,22.60
2018-07-14T22:23:33.741Z,22.60
2018-07-14T22:26:09.272Z,22.50
2018-07-14T22:31:19.507Z,22.40
2018-07-14T22:33:54.904Z,22.40
2018-07-14T22:36:29.992Z,22.40
2018-07-14T22:39:06.746Z,22.40
2018-07-14T22:41:45.426Z,22.40
2018-07-14T22:44:20.840Z,22.30
2018-07-14T22:46:56.183Z,22.20
2018-07-14T22:49:31.336Z,22.20
2018-07-14T22:52:07.423Z,22.20
2018-07-14T22:54:42.654Z,22.00
2018-07-14T22:57:18.099Z,22.00
2018-07-14T22:59:53.231Z,22.10
2018-07-14T23:02:28.388Z,22.00
2018-07-14T23:05:03.592Z,21.90
2018-07-14T23:07:38.849Z,21.90
2018-07-14T23:10:13.983Z,21.90
2018-07-14T23:12:49.421Z,21.90
2018-07-14T23:15:24.797Z,21.90
2018-07-14T23:18:00.074Z,21.80
2018-07-14T23:20:35.635Z,21.90
2018-07-14T23:23:11.242Z,21.80
2018-07-14T23:25:46.793Z,21.70
2018-07-14T23:28:22.088Z,21.70
2018-07-14T23:30:57.423Z,21.60
2018-07-14T23:33:32.800Z,21.70
2018-07-14T23:36:08.183Z,21.60
2018-07-14T23:38:43.371Z,21.50
2018-07-14T23:41:18.984Z,21.50
2018-07-14T23:43:54.548Z,21.50
2018-07-14T23:46:29.751Z,21.50
2018-07-14T23:49:05.104Z,21.40
2018-07-14T23:51:40.577Z,21.40
2018-07-14T23:54:16.239Z,21.40
2018-07-14T23:56:51.632Z,21.40
2018-07-14T23:59:26.919Z,21.40
